sensor_id;sensor_type;location;lat;lon;timestamp;temperature;humidity
30250;DHT22;17064;47.974;13.826;2022-09-09T00:02:34;11.40;99.90
30250;DHT22;17064;47.974;13.826;2022-09-09T00:07:55;11.30;99.90
30250;DHT22;17064;47.974;13.826;2022-09-09T00:13:28;11.40;99.90
30250;DHT22;17064;47.974;13.826;2022-09-09T00:24:27;11.30;99.90
30250;DHT22;17064;47.974;13.826;2022-09-09T00:29:54;11.30;99.90
30250;DHT22;17064;47.974;13.826;2022-09-09T00:35:24;11.30;99.90
30250;DHT22;17064;47.974;13.826;2022-09-09T00:40:52;11.30;99.90
30250;DHT22;17064;47.974;13.826;2022-09-09T00:57:23;11.20;99.90
30250;DHT22;17064;47.974;13.826;2022-09-09T01:08:37;11.20;99.90
30250;DHT22;17064;47.974;13.826;2022-09-09T01:20:14;11.20;99.90
30250;DHT22;17064;47.974;13.826;2022-09-09T01:31:42;11.20;99.90
30250;DHT22;17064;47.974;13.826;2022-09-09T01:37:12;11.20;99.90
30250;DHT22;17064;47.974;13.826;2022-09-09T01:42:31;11.20;99.90
30250;DHT22;17064;47.974;13.826;2022-09-09T01:47:52;11.20;99.90
30250;DHT22;17064;47.974;13.826;2022-09-09T01:53:12;11.20;99.90
30250;DHT22;17064;47.974;13.826;2022-09-09T02:04:38;11.10;99.90
30250;DHT22;17064;47.974;13.826;2022-09-09T02:10:08;11.10;99.90
30250;DHT22;17064;47.974;13.826;2022-09-09T02:21:42;11.10;99.90
30250;DHT22;17064;47.974;13.826;2022-09-09T02:27:05;11.10;99.90
30250;DHT22;17064;47.974;13.826;2022-09-09T02:32:27;11.10;99.90
30250;DHT22;17064;47.974;13.826;2022-09-09T02:37:51;11.10;99.90
30250;DHT22;17064;47.974;13.826;2022-09-09T02:43:14;11.10;99.90
30250;DHT22;17064;47.974;13.826;2022-09-09T02:48:52;11.20;99.90
30250;DHT22;17064;47.974;13.826;2022-09-09T02:54:30;11.10;99.90
30250;DHT22;17064;47.974;13.826;2022-09-09T02:59:51;11.10;99.90
30250;DHT22;17064;47.974;13.826;2022-09-09T03:05:13;11.00;99.90
30250;DHT22;17064;47.974;13.826;2022-09-09T03:10:33;11.00;99.90
30250;DHT22;17064;47.974;13.826;2022-09-09T03:15:54;10.90;99.90
30250;DHT22;17064;47.974;13.826;2022-09-09T03:21:13;11.00;99.90
30250;DHT22;17064;47.974;13.826;2022-09-09T03:26:33;10.90;99.90
30250;DHT22;17064;47.974;13.826;2022-09-09T03:31:52;10.90;99.90
30250;DHT22;17064;47.974;13.826;2022-09-09T03:37:12;10.80;99.90
30250;DHT22;17064;47.974;13.826;2022-09-09T03:42:31;10.80;99.90
30250;DHT22;17064;47.974;13.826;2022-09-09T03:47:50;10.80;99.90
30250;DHT22;17064;47.974;13.826;2022-09-09T03:53:10;10.80;99.90
30250;DHT22;17064;47.974;13.826;2022-09-09T03:58:29;10.80;99.90
30250;DHT22;17064;47.974;13.826;2022-09-09T04:03:49;10.80;99.90
30250;DHT22;17064;47.974;13.826;2022-09-09T04:09:09;10.80;99.90
30250;DHT22;17064;47.974;13.826;2022-09-09T04:14:29;10.80;99.90
30250;DHT22;17064;47.974;13.826;2022-09-09T04:19:48;10.80;99.90
30250;DHT22;17064;47.974;13.826;2022-09-09T04:25:08;10.90;99.90
30250;DHT22;17064;47.974;13.826;2022-09-09T04:30:27;10.90;99.90
30250;DHT22;17064;47.974;13.826;2022-09-09T04:35:47;10.90;99.90
30250;DHT22;17064;47.974;13.826;2022-09-09T04:41:08;11.00;99.90
30250;DHT22;17064;47.974;13.826;2022-09-09T04:46:30;10.90;99.90
30250;DHT22;17064;47.974;13.826;2022-09-09T04:51:49;11.00;99.90
30250;DHT22;17064;47.974;13.826;2022-09-09T04:57:10;11.00;99.90
30250;DHT22;17064;47.974;13.826;2022-09-09T05:02:29;11.20;99.90
30250;DHT22;17064;47.974;13.826;2022-09-09T05:07:49;11.30;99.90
30250;DHT22;17064;47.974;13.826;2022-09-09T05:13:08;11.40;99.90
30250;DHT22;17064;47.974;13.826;2022-09-09T05:18:28;11.50;99.90
30250;DHT22;17064;47.974;13.826;2022-09-09T05:23:47;11.50;99.90
30250;DHT22;17064;47.974;13.826;2022-09-09T05:29:06;11.60;99.90
30250;DHT22;17064;47.974;13.826;2022-09-09T05:34:27;11.70;99.90
30250;DHT22;17064;47.974;13.826;2022-09-09T05:39:46;11.90;99.90
30250;DHT22;17064;47.974;13.826;2022-09-09T05:45:06;12.20;99.90
30250;DHT22;17064;47.974;13.826;2022-09-09T05:50:26;12.30;99.90
30250;DHT22;17064;47.974;13.826;2022-09-09T05:55:46;12.40;99.90
30250;DHT22;17064;47.974;13.826;2022-09-09T06:01:08;12.60;99.90
30250;DHT22;17064;47.974;13.826;2022-09-09T06:06:34;12.60;99.90
30250;DHT22;17064;47.974;13.826;2022-09-09T06:11:56;12.60;99.90
30250;DHT22;17064;47.974;13.826;2022-09-09T06:17:16;12.70;99.90
30250;DHT22;17064;47.974;13.826;2022-09-09T06:22:35;12.90;99.90
30250;DHT22;17064;47.974;13.826;2022-09-09T06:27:55;13.10;99.90
30250;DHT22;17064;47.974;13.826;2022-09-09T06:33:14;13.10;99.90
30250;DHT22;17064;47.974;13.826;2022-09-09T06:38:34;13.30;99.90
30250;DHT22;17064;47.974;13.826;2022-09-09T06:43:53;13.50;99.90
30250;DHT22;17064;47.974;13.826;2022-09-09T06:49:14;13.70;99.90
30250;DHT22;17064;47.974;13.826;2022-09-09T06:54:34;14.20;99.90
30250;DHT22;17064;47.974;13.826;2022-09-09T06:59:56;14.50;99.90
30250;DHT22;17064;47.974;13.826;2022-09-09T07:05:15;14.90;99.90
30250;DHT22;17064;47.974;13.826;2022-09-09T07:10:34;15.00;99.90
30250;DHT22;17064;47.974;13.826;2022-09-09T07:15:54;15.20;99.90
30250;DHT22;17064;47.974;13.826;2022-09-09T07:21:14;15.20;99.90
30250;DHT22;17064;47.974;13.826;2022-09-09T07:26:34;15.20;99.90
30250;DHT22;17064;47.974;13.826;2022-09-09T07:31:53;15.10;99.90
30250;DHT22;17064;47.974;13.826;2022-09-09T07:37:13;14.90;99.90
30250;DHT22;17064;47.974;13.826;2022-09-09T07:42:33;14.80;99.90
30250;DHT22;17064;47.974;13.826;2022-09-09T07:47:52;14.70;99.90
30250;DHT22;17064;47.974;13.826;2022-09-09T07:53:12;14.60;99.90
30250;DHT22;17064;47.974;13.826;2022-09-09T07:58:31;14.60;99.90
30250;DHT22;17064;47.974;13.826;2022-09-09T08:09:21;14.50;99.90
30250;DHT22;17064;47.974;13.826;2022-09-09T08:14:43;14.50;99.90
30250;DHT22;17064;47.974;13.826;2022-09-09T08:20:03;14.50;99.90
30250;DHT22;17064;47.974;13.826;2022-09-09T08:25:33;14.40;99.90
30250;DHT22;17064;47.974;13.826;2022-09-09T08:30:54;14.40;99.90
30250;DHT22;17064;47.974;13.826;2022-09-09T08:36:18;14.40;99.90
30250;DHT22;17064;47.974;13.826;2022-09-09T08:53:16;14.50;99.90
30250;DHT22;17064;47.974;13.826;2022-09-09T08:58:48;14.50;99.90
30250;DHT22;17064;47.974;13.826;2022-09-09T09:10:05;14.60;99.90
30250;DHT22;17064;47.974;13.826;2022-09-09T09:15:33;14.60;99.90
30250;DHT22;17064;47.974;13.826;2022-09-09T09:26:35;14.70;99.90
30250;DHT22;17064;47.974;13.826;2022-09-09T09:32:00;14.80;99.90
30250;DHT22;17064;47.974;13.826;2022-09-09T09:37:28;15.00;99.90
30250;DHT22;17064;47.974;13.826;2022-09-09T09:43:00;15.10;99.90
30250;DHT22;17064;47.974;13.826;2022-09-09T09:48:20;15.20;99.90
30250;DHT22;17064;47.974;13.826;2022-09-09T09:53:39;15.30;99.90
30250;DHT22;17064;47.974;13.826;2022-09-09T09:58:59;15.40;99.90
30250;DHT22;17064;47.974;13.826;2022-09-09T10:04:21;15.40;99.90
30250;DHT22;17064;47.974;13.826;2022-09-09T10:09:42;15.50;99.90
30250;DHT22;17064;47.974;13.826;2022-09-09T10:59:47;15.40;99.90
30250;DHT22;17064;47.974;13.826;2022-09-09T11:16:17;15.40;99.90
30250;DHT22;17064;47.974;13.826;2022-09-09T11:21:44;15.40;99.90
30250;DHT22;17064;47.974;13.826;2022-09-09T11:27:31;15.40;99.90
30250;DHT22;17064;47.974;13.826;2022-09-09T11:33:08;15.40;99.90
30250;DHT22;17064;47.974;13.826;2022-09-09T11:44:17;15.40;99.90
30250;DHT22;17064;47.974;13.826;2022-09-09T11:54:57;15.30;99.90
30250;DHT22;17064;47.974;13.826;2022-09-09T12:00:37;15.40;99.90
30250;DHT22;17064;47.974;13.826;2022-09-09T12:22:40;15.80;99.90
30250;DHT22;17064;47.974;13.826;2022-09-09T12:28:03;15.90;99.90
30250;DHT22;17064;47.974;13.826;2022-09-09T12:33:13;16.10;99.90
30250;DHT22;17064;47.974;13.826;2022-09-09T12:38:25;16.30;99.90
30250;DHT22;17064;47.974;13.826;2022-09-09T12:43:28;16.30;99.90
30250;DHT22;17064;47.974;13.826;2022-09-09T12:48:38;16.30;99.90
30250;DHT22;17064;47.974;13.826;2022-09-09T12:53:40;16.30;99.90
30250;DHT22;17064;47.974;13.826;2022-09-09T12:58:46;16.30;99.90
30250;DHT22;17064;47.974;13.826;2022-09-09T13:03:47;16.30;99.90
30250;DHT22;17064;47.974;13.826;2022-09-09T13:08:58;16.30;99.90
30250;DHT22;17064;47.974;13.826;2022-09-09T13:13:59;16.30;99.90
30250;DHT22;17064;47.974;13.826;2022-09-09T13:19:09;16.20;99.90
30250;DHT22;17064;47.974;13.826;2022-09-09T13:24:31;16.20;99.90
30250;DHT22;17064;47.974;13.826;2022-09-09T13:29:32;16.10;99.90
30250;DHT22;17064;47.974;13.826;2022-09-09T13:34:34;16.10;99.90
30250;DHT22;17064;47.974;13.826;2022-09-09T13:39:36;16.10;99.90
30250;DHT22;17064;47.974;13.826;2022-09-09T13:44:39;16.10;99.90
30250;DHT22;17064;47.974;13.826;2022-09-09T13:49:41;16.20;99.90
30250;DHT22;17064;47.974;13.826;2022-09-09T13:54:42;16.30;99.90
30250;DHT22;17064;47.974;13.826;2022-09-09T13:59:44;16.30;99.90
30250;DHT22;17064;47.974;13.826;2022-09-09T14:04:45;16.30;99.90
30250;DHT22;17064;47.974;13.826;2022-09-09T14:09:47;16.30;99.90
30250;DHT22;17064;47.974;13.826;2022-09-09T14:14:52;16.30;99.90
30250;DHT22;17064;47.974;13.826;2022-09-09T14:19:52;16.30;99.90
30250;DHT22;17064;47.974;13.826;2022-09-09T14:24:53;16.30;99.90
30250;DHT22;17064;47.974;13.826;2022-09-09T14:29:54;16.30;99.90
30250;DHT22;17064;47.974;13.826;2022-09-09T14:34:58;16.30;99.90
30250;DHT22;17064;47.974;13.826;2022-09-09T14:39:59;16.40;99.90
30250;DHT22;17064;47.974;13.826;2022-09-09T14:44:59;16.40;99.90
30250;DHT22;17064;47.974;13.826;2022-09-09T14:50:00;16.40;99.90
30250;DHT22;17064;47.974;13.826;2022-09-09T14:55:03;16.40;99.90
30250;DHT22;17064;47.974;13.826;2022-09-09T15:00:04;16.40;99.90
30250;DHT22;17064;47.974;13.826;2022-09-09T15:05:06;16.40;99.90
30250;DHT22;17064;47.974;13.826;2022-09-09T15:10:07;16.30;99.90
30250;DHT22;17064;47.974;13.826;2022-09-09T15:15:08;16.30;99.90
30250;DHT22;17064;47.974;13.826;2022-09-09T15:20:09;16.20;99.90
30250;DHT22;17064;47.974;13.826;2022-09-09T15:25:10;16.10;99.90
30250;DHT22;17064;47.974;13.826;2022-09-09T15:30:12;16.10;99.90
30250;DHT22;17064;47.974;13.826;2022-09-09T15:35:13;16.00;99.90
30250;DHT22;17064;47.974;13.826;2022-09-09T15:40:14;15.90;99.90
30250;DHT22;17064;47.974;13.826;2022-09-09T15:45:15;15.80;99.90
30250;DHT22;17064;47.974;13.826;2022-09-09T15:50:16;15.70;99.90
30250;DHT22;17064;47.974;13.826;2022-09-09T15:55:17;15.60;99.90
30250;DHT22;17064;47.974;13.826;2022-09-09T16:00:19;15.50;99.90
30250;DHT22;17064;47.974;13.826;2022-09-09T16:05:19;15.40;99.90
30250;DHT22;17064;47.974;13.826;2022-09-09T16:10:21;15.40;99.90
30250;DHT22;17064;47.974;13.826;2022-09-09T16:15:21;15.40;99.90
30250;DHT22;17064;47.974;13.826;2022-09-09T16:20:23;15.40;99.90
30250;DHT22;17064;47.974;13.826;2022-09-09T16:25:24;15.40;99.90
30250;DHT22;17064;47.974;13.826;2022-09-09T16:30:25;15.40;99.90
30250;DHT22;17064;47.974;13.826;2022-09-09T16:35:25;15.50;99.90
30250;DHT22;17064;47.974;13.826;2022-09-09T16:40:26;15.50;99.90
30250;DHT22;17064;47.974;13.826;2022-09-09T16:45:27;15.40;99.90
30250;DHT22;17064;47.974;13.826;2022-09-09T16:50:30;15.40;99.90
30250;DHT22;17064;47.974;13.826;2022-09-09T16:55:31;15.30;99.90
30250;DHT22;17064;47.974;13.826;2022-09-09T17:00:32;15.20;99.90
30250;DHT22;17064;47.974;13.826;2022-09-09T17:05:39;15.20;99.90
30250;DHT22;17064;47.974;13.826;2022-09-09T17:10:42;15.10;99.90
30250;DHT22;17064;47.974;13.826;2022-09-09T17:15:43;15.10;99.90
30250;DHT22;17064;47.974;13.826;2022-09-09T17:20:43;15.00;99.90
30250;DHT22;17064;47.974;13.826;2022-09-09T17:25:44;14.90;99.90
30250;DHT22;17064;47.974;13.826;2022-09-09T17:30:46;14.80;99.90
30250;DHT22;17064;47.974;13.826;2022-09-09T17:35:47;14.70;99.90
30250;DHT22;17064;47.974;13.826;2022-09-09T17:40:49;14.70;99.90
30250;DHT22;17064;47.974;13.826;2022-09-09T17:45:51;14.60;99.90
30250;DHT22;17064;47.974;13.826;2022-09-09T17:50:58;14.50;99.90
30250;DHT22;17064;47.974;13.826;2022-09-09T17:56:04;14.50;99.90
30250;DHT22;17064;47.974;13.826;2022-09-09T18:01:08;14.40;99.90
30250;DHT22;17064;47.974;13.826;2022-09-09T18:06:13;14.40;99.90
30250;DHT22;17064;47.974;13.826;2022-09-09T18:11:16;14.40;99.90
30250;DHT22;17064;47.974;13.826;2022-09-09T18:16:17;14.40;99.90
30250;DHT22;17064;47.974;13.826;2022-09-09T18:21:19;14.30;99.90
30250;DHT22;17064;47.974;13.826;2022-09-09T18:26:22;14.30;99.90
30250;DHT22;17064;47.974;13.826;2022-09-09T18:31:25;14.30;99.90
30250;DHT22;17064;47.974;13.826;2022-09-09T18:36:32;14.30;99.90
30250;DHT22;17064;47.974;13.826;2022-09-09T18:41:42;14.20;99.90
30250;DHT22;17064;47.974;13.826;2022-09-09T18:46:44;14.20;99.90
30250;DHT22;17064;47.974;13.826;2022-09-09T18:51:45;14.20;99.90
30250;DHT22;17064;47.974;13.826;2022-09-09T18:56:46;14.20;99.90
30250;DHT22;17064;47.974;13.826;2022-09-09T19:01:48;14.20;99.90
30250;DHT22;17064;47.974;13.826;2022-09-09T19:06:50;14.20;99.90
30250;DHT22;17064;47.974;13.826;2022-09-09T19:11:58;14.20;99.90
30250;DHT22;17064;47.974;13.826;2022-09-09T19:16:59;14.20;99.90
30250;DHT22;17064;47.974;13.826;2022-09-09T19:22:00;14.10;99.90
30250;DHT22;17064;47.974;13.826;2022-09-09T19:27:04;14.10;99.90
30250;DHT22;17064;47.974;13.826;2022-09-09T19:32:06;14.10;99.90
30250;DHT22;17064;47.974;13.826;2022-09-09T19:37:07;14.10;99.90
30250;DHT22;17064;47.974;13.826;2022-09-09T19:42:07;14.10;99.90
30250;DHT22;17064;47.974;13.826;2022-09-09T19:47:08;14.10;99.90
30250;DHT22;17064;47.974;13.826;2022-09-09T19:52:09;14.00;99.90
30250;DHT22;17064;47.974;13.826;2022-09-09T19:57:11;13.90;99.90
30250;DHT22;17064;47.974;13.826;2022-09-09T20:02:14;13.80;99.90
30250;DHT22;17064;47.974;13.826;2022-09-09T20:07:14;13.80;99.90
30250;DHT22;17064;47.974;13.826;2022-09-09T20:12:15;13.80;99.90
30250;DHT22;17064;47.974;13.826;2022-09-09T20:17:16;13.70;99.90
30250;DHT22;17064;47.974;13.826;2022-09-09T20:22:17;13.70;99.90
30250;DHT22;17064;47.974;13.826;2022-09-09T20:27:17;13.70;99.90
30250;DHT22;17064;47.974;13.826;2022-09-09T20:32:18;13.70;99.90
30250;DHT22;17064;47.974;13.826;2022-09-09T20:37:19;13.70;99.90
30250;DHT22;17064;47.974;13.826;2022-09-09T20:42:23;13.70;99.90
30250;DHT22;17064;47.974;13.826;2022-09-09T20:47:29;13.70;99.90
30250;DHT22;17064;47.974;13.826;2022-09-09T20:52:30;13.70;99.90
30250;DHT22;17064;47.974;13.826;2022-09-09T20:57:31;13.70;99.90
30250;DHT22;17064;47.974;13.826;2022-09-09T21:02:31;13.80;99.90
30250;DHT22;17064;47.974;13.826;2022-09-09T21:07:32;13.80;99.90
30250;DHT22;17064;47.974;13.826;2022-09-09T21:12:33;13.90;99.90
30250;DHT22;17064;47.974;13.826;2022-09-09T21:17:33;13.90;99.90
30250;DHT22;17064;47.974;13.826;2022-09-09T21:22:34;13.80;99.90
30250;DHT22;17064;47.974;13.826;2022-09-09T21:27:35;13.80;99.90
30250;DHT22;17064;47.974;13.826;2022-09-09T21:32:36;13.80;99.90
30250;DHT22;17064;47.974;13.826;2022-09-09T21:37:37;13.80;99.90
30250;DHT22;17064;47.974;13.826;2022-09-09T21:42:37;13.70;99.90
30250;DHT22;17064;47.974;13.826;2022-09-09T21:47:38;13.70;99.90
30250;DHT22;17064;47.974;13.826;2022-09-09T21:52:39;13.70;99.90
30250;DHT22;17064;47.974;13.826;2022-09-09T21:57:39;13.70;99.90
30250;DHT22;17064;47.974;13.826;2022-09-09T22:02:40;13.70;99.90
30250;DHT22;17064;47.974;13.826;2022-09-09T22:07:41;13.60;99.90
30250;DHT22;17064;47.974;13.826;2022-09-09T22:12:41;13.60;99.90
30250;DHT22;17064;47.974;13.826;2022-09-09T22:17:42;13.60;99.90
30250;DHT22;17064;47.974;13.826;2022-09-09T22:22:43;13.60;99.90
30250;DHT22;17064;47.974;13.826;2022-09-09T22:27:43;13.60;99.90
30250;DHT22;17064;47.974;13.826;2022-09-09T22:32:44;13.60;99.90
30250;DHT22;17064;47.974;13.826;2022-09-09T22:37:45;13.60;99.90
30250;DHT22;17064;47.974;13.826;2022-09-09T22:42:46;13.70;99.90
30250;DHT22;17064;47.974;13.826;2022-09-09T22:47:47;13.70;99.90
30250;DHT22;17064;47.974;13.826;2022-09-09T22:52:48;13.70;99.90
30250;DHT22;17064;47.974;13.826;2022-09-09T22:57:49;13.70;99.90
30250;DHT22;17064;47.974;13.826;2022-09-09T23:02:49;13.60;99.90
30250;DHT22;17064;47.974;13.826;2022-09-09T23:07:51;13.60;99.90
30250;DHT22;17064;47.974;13.826;2022-09-09T23:12:57;13.50;99.90
30250;DHT22;17064;47.974;13.826;2022-09-09T23:17:58;13.50;99.90
30250;DHT22;17064;47.974;13.826;2022-09-09T23:22:59;13.50;99.90
30250;DHT22;17064;47.974;13.826;2022-09-09T23:28:00;13.50;99.90
30250;DHT22;17064;47.974;13.826;2022-09-09T23:33:01;13.40;99.90
30250;DHT22;17064;47.974;13.826;2022-09-09T23:38:02;13.40;99.90
30250;DHT22;17064;47.974;13.826;2022-09-09T23:43:02;13.40;99.90
30250;DHT22;17064;47.974;13.826;2022-09-09T23:48:05;13.40;99.90
30250;DHT22;17064;47.974;13.826;2022-09-09T23:53:06;13.40;99.90
30250;DHT22;17064;47.974;13.826;2022-09-09T23:58:08;13.50;99.90
